sensor_id;sensor_type;location;lat;lon;timestamp;pressure;altitude;pressure_sealevel;temperature;humidity
52983;BME280;48698;45.736;13.926;2024-02-28T00:04:21;97438.81;;;9.09;100.00
52983;BME280;48698;45.736;13.926;2024-02-28T00:09:24;97512.03;;;9.28;100.00
52983;BME280;48698;45.736;13.926;2024-02-28T00:14:28;97513.97;;;9.25;100.00
52983;BME280;48698;45.736;13.926;2024-02-28T00:19:31;97445.88;;;8.91;100.00
52983;BME280;48698;45.736;13.926;2024-02-28T00:24:35;97344.72;;;8.47;100.00
52983;BME280;48698;45.736;13.926;2024-02-28T00:29:39;97535.09;;;9.45;100.00
52983;BME280;48698;45.736;13.926;2024-02-28T00:34:42;97481.91;;;9.12;100.00
52983;BME280;48698;45.736;13.926;2024-02-28T00:39:46;97493.34;;;9.31;100.00
52983;BME280;48698;45.736;13.926;2024-02-28T00:44:49;97508.97;;;9.38;100.00
52983;BME280;48698;45.736;13.926;2024-02-28T00:49:53;97537.38;;;9.53;100.00
52983;BME280;48698;45.736;13.926;2024-02-28T00:54:56;97395.91;;;8.83;100.00
52983;BME280;48698;45.736;13.926;2024-02-28T01:00:00;97343.22;;;8.96;100.00
52983;BME280;48698;45.736;13.926;2024-02-28T01:05:04;97476.19;;;9.92;100.00
52983;BME280;48698;45.736;13.926;2024-02-28T01:10:08;97448.56;;;9.61;100.00
52983;BME280;48698;45.736;13.926;2024-02-28T01:15:11;97293.25;;;8.71;100.00
52983;BME280;48698;45.736;13.926;2024-02-28T01:20:15;97301.31;;;8.68;100.00
52983;BME280;48698;45.736;13.926;2024-02-28T01:25:18;97529.59;;;10.20;100.00
52983;BME280;48698;45.736;13.926;2024-02-28T01:30:23;97542.56;;;10.26;100.00
52983;BME280;48698;45.736;13.926;2024-02-28T01:35:26;97516.00;;;10.26;100.00
52983;BME280;48698;45.736;13.926;2024-02-28T01:40:30;97509.66;;;10.11;100.00
52983;BME280;48698;45.736;13.926;2024-02-28T01:45:33;97413.09;;;9.47;100.00
52983;BME280;48698;45.736;13.926;2024-02-28T01:50:37;97320.69;;;8.88;100.00
52983;BME280;48698;45.736;13.926;2024-02-28T01:55:42;97509.53;;;10.14;100.00
52983;BME280;48698;45.736;13.926;2024-02-28T02:00:46;97512.31;;;10.11;100.00
52983;BME280;48698;45.736;13.926;2024-02-28T02:05:51;97501.56;;;10.14;100.00
52983;BME280;48698;45.736;13.926;2024-02-28T02:10:55;97492.09;;;10.09;100.00
52983;BME280;48698;45.736;13.926;2024-02-28T02:15:59;97459.13;;;9.80;100.00
52983;BME280;48698;45.736;13.926;2024-02-28T02:21:04;97518.78;;;10.06;100.00
52983;BME280;48698;45.736;13.926;2024-02-28T02:26:09;97491.66;;;9.83;100.00
52983;BME280;48698;45.736;13.926;2024-02-28T02:31:14;97307.63;;;8.66;100.00
52983;BME280;48698;45.736;13.926;2024-02-28T02:36:18;97502.84;;;9.71;100.00
52983;BME280;48698;45.736;13.926;2024-02-28T02:41:21;97439.28;;;9.53;100.00
52983;BME280;48698;45.736;13.926;2024-02-28T02:46:25;97427.94;;;9.32;100.00
52983;BME280;48698;45.736;13.926;2024-02-28T02:51:28;97504.16;;;9.63;100.00
52983;BME280;48698;45.736;13.926;2024-02-28T02:56:32;97394.25;;;9.00;100.00
52983;BME280;48698;45.736;13.926;2024-02-28T03:01:35;97539.22;;;9.86;100.00
52983;BME280;48698;45.736;13.926;2024-02-28T03:06:39;97512.38;;;9.75;100.00
52983;BME280;48698;45.736;13.926;2024-02-28T03:11:43;97469.47;;;9.67;100.00
52983;BME280;48698;45.736;13.926;2024-02-28T03:16:46;97483.22;;;9.93;100.00
52983;BME280;48698;45.736;13.926;2024-02-28T03:21:51;97516.16;;;10.23;100.00
52983;BME280;48698;45.736;13.926;2024-02-28T03:26:55;97453.44;;;9.88;100.00
52983;BME280;48698;45.736;13.926;2024-02-28T03:31:58;97488.84;;;9.86;100.00
52983;BME280;48698;45.736;13.926;2024-02-28T03:37:02;97453.31;;;9.72;100.00
52983;BME280;48698;45.736;13.926;2024-02-28T03:42:06;97517.47;;;10.14;100.00
52983;BME280;48698;45.736;13.926;2024-02-28T03:47:09;97517.91;;;10.24;100.00
52983;BME280;48698;45.736;13.926;2024-02-28T03:52:13;97363.25;;;9.36;100.00
52983;BME280;48698;45.736;13.926;2024-02-28T03:57:16;97398.13;;;9.63;100.00
52983;BME280;48698;45.736;13.926;2024-02-28T04:02:20;97396.16;;;9.32;100.00
52983;BME280;48698;45.736;13.926;2024-02-28T04:07:24;97519.44;;;10.11;100.00
52983;BME280;48698;45.736;13.926;2024-02-28T04:12:27;97532.69;;;10.11;100.00
52983;BME280;48698;45.736;13.926;2024-02-28T04:17:31;97480.94;;;9.85;100.00
52983;BME280;48698;45.736;13.926;2024-02-28T04:22:34;97348.75;;;9.26;100.00
52983;BME280;48698;45.736;13.926;2024-02-28T04:27:38;97430.31;;;9.72;100.00
52983;BME280;48698;45.736;13.926;2024-02-28T04:32:42;97454.19;;;9.90;100.00
52983;BME280;48698;45.736;13.926;2024-02-28T04:38:04;97492.13;;;10.26;100.00
52983;BME280;48698;45.736;13.926;2024-02-28T04:43:07;97442.94;;;9.84;100.00
52983;BME280;48698;45.736;13.926;2024-02-28T04:48:11;97440.84;;;9.91;100.00
52983;BME280;48698;45.736;13.926;2024-02-28T04:53:14;97405.84;;;9.67;100.00
52983;BME280;48698;45.736;13.926;2024-02-28T04:58:18;97453.09;;;9.94;100.00
52983;BME280;48698;45.736;13.926;2024-02-28T05:03:21;97526.63;;;10.26;100.00
52983;BME280;48698;45.736;13.926;2024-02-28T05:08:25;97522.56;;;10.19;100.00
52983;BME280;48698;45.736;13.926;2024-02-28T05:13:30;97548.09;;;10.21;100.00
52983;BME280;48698;45.736;13.926;2024-02-28T05:18:33;97407.69;;;9.14;100.00
52983;BME280;48698;45.736;13.926;2024-02-28T05:23:37;97555.44;;;10.16;100.00
52983;BME280;48698;45.736;13.926;2024-02-28T05:28:40;97564.88;;;10.22;100.00
52983;BME280;48698;45.736;13.926;2024-02-28T05:33:44;97504.50;;;9.91;100.00
52983;BME280;48698;45.736;13.926;2024-02-28T05:38:47;97561.19;;;10.24;100.00
52983;BME280;48698;45.736;13.926;2024-02-28T05:43:51;97524.25;;;9.85;100.00
52983;BME280;48698;45.736;13.926;2024-02-28T05:48:55;97567.34;;;10.25;100.00
52983;BME280;48698;45.736;13.926;2024-02-28T05:53:58;97377.44;;;9.01;100.00
52983;BME280;48698;45.736;13.926;2024-02-28T05:59:02;97553.06;;;10.10;100.00
52983;BME280;48698;45.736;13.926;2024-02-28T06:04:06;97542.88;;;10.20;100.00
52983;BME280;48698;45.736;13.926;2024-02-28T06:09:10;97605.78;;;10.52;100.00
52983;BME280;48698;45.736;13.926;2024-02-28T06:14:13;97516.94;;;9.91;100.00
52983;BME280;48698;45.736;13.926;2024-02-28T06:19:20;97530.09;;;9.92;100.00
52983;BME280;48698;45.736;13.926;2024-02-28T06:24:24;97610.16;;;10.36;100.00
52983;BME280;48698;45.736;13.926;2024-02-28T06:29:27;97584.03;;;10.10;100.00
52983;BME280;48698;45.736;13.926;2024-02-28T06:34:31;97410.19;;;9.17;100.00
52983;BME280;48698;45.736;13.926;2024-02-28T06:39:35;97514.16;;;9.75;100.00
52983;BME280;48698;45.736;13.926;2024-02-28T06:44:38;97564.75;;;10.06;100.00
52983;BME280;48698;45.736;13.926;2024-02-28T06:49:42;97653.75;;;10.66;100.00
52983;BME280;48698;45.736;13.926;2024-02-28T06:54:45;97564.00;;;10.21;100.00
52983;BME280;48698;45.736;13.926;2024-02-28T06:59:49;97542.88;;;10.01;100.00
52983;BME280;48698;45.736;13.926;2024-02-28T07:04:52;97393.25;;;9.19;100.00
52983;BME280;48698;45.736;13.926;2024-02-28T07:09:57;97567.69;;;10.53;100.00
52983;BME280;48698;45.736;13.926;2024-02-28T07:15:01;97650.97;;;11.02;100.00
52983;BME280;48698;45.736;13.926;2024-02-28T07:20:05;97654.22;;;11.07;100.00
52983;BME280;48698;45.736;13.926;2024-02-28T07:25:10;97540.81;;;10.42;100.00
52983;BME280;48698;45.736;13.926;2024-02-28T07:30:13;97590.28;;;10.77;100.00
52983;BME280;48698;45.736;13.926;2024-02-28T07:35:17;97648.66;;;11.12;100.00
52983;BME280;48698;45.736;13.926;2024-02-28T07:40:21;97663.88;;;11.25;100.00
52983;BME280;48698;45.736;13.926;2024-02-28T07:45:24;97649.19;;;11.51;100.00
52983;BME280;48698;45.736;13.926;2024-02-28T07:50:28;97596.84;;;11.36;100.00
52983;BME280;48698;45.736;13.926;2024-02-28T07:55:31;97673.44;;;11.93;100.00
52983;BME280;48698;45.736;13.926;2024-02-28T08:00:35;97629.97;;;11.62;100.00
52983;BME280;48698;45.736;13.926;2024-02-28T08:05:39;97608.88;;;11.43;100.00
52983;BME280;48698;45.736;13.926;2024-02-28T08:10:42;97678.59;;;11.81;100.00
52983;BME280;48698;45.736;13.926;2024-02-28T08:15:46;97666.97;;;11.66;100.00
52983;BME280;48698;45.736;13.926;2024-02-28T08:20:49;97685.81;;;11.79;100.00
52983;BME280;48698;45.736;13.926;2024-02-28T08:25:53;97651.59;;;11.56;100.00
52983;BME280;48698;45.736;13.926;2024-02-28T08:30:58;97664.53;;;11.46;100.00
52983;BME280;48698;45.736;13.926;2024-02-28T08:36:02;97711.56;;;11.78;100.00
52983;BME280;48698;45.736;13.926;2024-02-28T08:41:05;97655.72;;;11.61;100.00
52983;BME280;48698;45.736;13.926;2024-02-28T08:46:14;97622.75;;;11.48;100.00
52983;BME280;48698;45.736;13.926;2024-02-28T08:51:19;97712.75;;;12.04;100.00
52983;BME280;48698;45.736;13.926;2024-02-28T08:56:22;97675.00;;;11.82;100.00
52983;BME280;48698;45.736;13.926;2024-02-28T09:01:27;97725.50;;;11.99;100.00
52983;BME280;48698;45.736;13.926;2024-02-28T09:06:30;97645.81;;;11.48;100.00
52983;BME280;48698;45.736;13.926;2024-02-28T09:11:34;97735.78;;;12.21;100.00
52983;BME280;48698;45.736;13.926;2024-02-28T09:16:38;97733.91;;;12.23;100.00
52983;BME280;48698;45.736;13.926;2024-02-28T09:21:41;97727.97;;;12.18;100.00
52983;BME280;48698;45.736;13.926;2024-02-28T09:26:45;97738.00;;;12.44;100.00
52983;BME280;48698;45.736;13.926;2024-02-28T09:31:48;97483.63;;;11.01;100.00
52983;BME280;48698;45.736;13.926;2024-02-28T09:36:52;97685.91;;;12.54;100.00
52983;BME280;48698;45.736;13.926;2024-02-28T09:41:56;97579.84;;;12.01;100.00
52983;BME280;48698;45.736;13.926;2024-02-28T09:46:59;97549.59;;;12.18;100.00
52983;BME280;48698;45.736;13.926;2024-02-28T09:52:04;97657.06;;;13.20;100.00
52983;BME280;48698;45.736;13.926;2024-02-28T09:57:07;97723.59;;;14.08;100.00
52983;BME280;48698;45.736;13.926;2024-02-28T10:02:11;97714.69;;;14.22;100.00
52983;BME280;48698;45.736;13.926;2024-02-28T10:07:16;97713.38;;;14.15;100.00
52983;BME280;48698;45.736;13.926;2024-02-28T10:12:20;97646.84;;;13.83;100.00
52983;BME280;48698;45.736;13.926;2024-02-28T10:17:24;97674.41;;;13.84;100.00
52983;BME280;48698;45.736;13.926;2024-02-28T10:22:35;97720.00;;;14.36;100.00
52983;BME280;48698;45.736;13.926;2024-02-28T10:27:39;97681.19;;;14.16;100.00
52983;BME280;48698;45.736;13.926;2024-02-28T10:32:49;97701.47;;;14.47;100.00
52983;BME280;48698;45.736;13.926;2024-02-28T10:37:53;97729.44;;;14.68;100.00
52983;BME280;48698;45.736;13.926;2024-02-28T10:42:57;97596.88;;;13.85;100.00
52983;BME280;48698;45.736;13.926;2024-02-28T10:48:04;97728.25;;;14.99;100.00
52983;BME280;48698;45.736;13.926;2024-02-28T10:53:13;97552.94;;;13.91;100.00
52983;BME280;48698;45.736;13.926;2024-02-28T10:58:18;97504.38;;;13.98;100.00
52983;BME280;48698;45.736;13.926;2024-02-28T11:03:25;97429.53;;;13.73;100.00
52983;BME280;48698;45.736;13.926;2024-02-28T11:08:29;97665.06;;;15.36;100.00
52983;BME280;48698;45.736;13.926;2024-02-28T11:13:33;97708.66;;;15.76;100.00
52983;BME280;48698;45.736;13.926;2024-02-28T11:18:49;97679.50;;;15.71;100.00
52983;BME280;48698;45.736;13.926;2024-02-28T11:23:59;97694.53;;;15.61;100.00
52983;BME280;48698;45.736;13.926;2024-02-28T11:29:03;97679.53;;;15.59;100.00
52983;BME280;48698;45.736;13.926;2024-02-28T11:34:09;97571.22;;;14.88;100.00
52983;BME280;48698;45.736;13.926;2024-02-28T11:39:13;97478.41;;;14.53;100.00
52983;BME280;48698;45.736;13.926;2024-02-28T11:44:18;97697.00;;;15.64;100.00
52983;BME280;48698;45.736;13.926;2024-02-28T11:49:21;97608.19;;;14.69;100.00
52983;BME280;48698;45.736;13.926;2024-02-28T11:54:25;97641.72;;;14.87;100.00
52983;BME280;48698;45.736;13.926;2024-02-28T11:59:29;97610.31;;;14.52;100.00
52983;BME280;48698;45.736;13.926;2024-02-28T12:04:35;97686.97;;;15.03;100.00
52983;BME280;48698;45.736;13.926;2024-02-28T12:09:39;97693.88;;;14.80;100.00
52983;BME280;48698;45.736;13.926;2024-02-28T12:14:46;97667.91;;;14.95;100.00
52983;BME280;48698;45.736;13.926;2024-02-28T12:19:50;97672.44;;;14.94;100.00
52983;BME280;48698;45.736;13.926;2024-02-28T12:24:57;97440.16;;;13.48;100.00
52983;BME280;48698;45.736;13.926;2024-02-28T12:30:01;97671.34;;;14.84;100.00
52983;BME280;48698;45.736;13.926;2024-02-28T12:35:05;97671.72;;;14.78;100.00
52983;BME280;48698;45.736;13.926;2024-02-28T12:40:10;97655.41;;;14.95;100.00
52983;BME280;48698;45.736;13.926;2024-02-28T12:45:14;97632.69;;;14.76;100.00
52983;BME280;48698;45.736;13.926;2024-02-28T12:50:17;97657.91;;;15.11;100.00
52983;BME280;48698;45.736;13.926;2024-02-28T12:55:21;97443.66;;;13.75;100.00
52983;BME280;48698;45.736;13.926;2024-02-28T13:00:25;97718.28;;;15.28;100.00
52983;BME280;48698;45.736;13.926;2024-02-28T13:05:29;97686.56;;;15.09;100.00
52983;BME280;48698;45.736;13.926;2024-02-28T13:10:33;97664.78;;;14.88;100.00
52983;BME280;48698;45.736;13.926;2024-02-28T13:15:44;97672.22;;;14.97;100.00
52983;BME280;48698;45.736;13.926;2024-02-28T13:20:48;97700.72;;;15.24;100.00
52983;BME280;48698;45.736;13.926;2024-02-28T13:25:52;97595.78;;;14.68;100.00
52983;BME280;48698;45.736;13.926;2024-02-28T13:31:04;97668.38;;;15.27;100.00
52983;BME280;48698;45.736;13.926;2024-02-28T13:36:08;97683.56;;;15.14;100.00
52983;BME280;48698;45.736;13.926;2024-02-28T13:41:12;97655.66;;;15.18;100.00
52983;BME280;48698;45.736;13.926;2024-02-28T13:46:16;97496.06;;;14.16;100.00
52983;BME280;48698;45.736;13.926;2024-02-28T13:51:19;97644.41;;;15.25;100.00
52983;BME280;48698;45.736;13.926;2024-02-28T13:56:23;97677.31;;;15.52;100.00
52983;BME280;48698;45.736;13.926;2024-02-28T14:01:26;97542.31;;;14.56;100.00
52983;BME280;48698;45.736;13.926;2024-02-28T14:06:32;97596.03;;;14.90;100.00
52983;BME280;48698;45.736;13.926;2024-02-28T14:11:35;97695.38;;;15.49;100.00
52983;BME280;48698;45.736;13.926;2024-02-28T14:16:39;97581.97;;;14.62;100.00
52983;BME280;48698;45.736;13.926;2024-02-28T14:21:42;97529.28;;;14.12;100.00
52983;BME280;48698;45.736;13.926;2024-02-28T14:26:45;97668.91;;;15.19;100.00
52983;BME280;48698;45.736;13.926;2024-02-28T14:31:50;97672.31;;;15.21;100.00
52983;BME280;48698;45.736;13.926;2024-02-28T14:36:53;97634.88;;;14.44;100.00
52983;BME280;48698;45.736;13.926;2024-02-28T14:41:57;97735.84;;;14.39;100.00
52983;BME280;48698;45.736;13.926;2024-02-28T14:47:00;97741.41;;;14.22;100.00
52983;BME280;48698;45.736;13.926;2024-02-28T14:52:05;97761.84;;;13.94;100.00
52983;BME280;48698;45.736;13.926;2024-02-28T14:57:09;97771.94;;;13.61;100.00
52983;BME280;48698;45.736;13.926;2024-02-28T15:02:13;97699.66;;;13.22;100.00
52983;BME280;48698;45.736;13.926;2024-02-28T15:07:16;97779.38;;;13.70;100.00
52983;BME280;48698;45.736;13.926;2024-02-28T15:12:20;97791.09;;;13.68;100.00
52983;BME280;48698;45.736;13.926;2024-02-28T15:17:26;97717.31;;;13.38;100.00
52983;BME280;48698;45.736;13.926;2024-02-28T15:22:30;97601.31;;;12.87;100.00
52983;BME280;48698;45.736;13.926;2024-02-28T15:27:38;97665.56;;;13.41;100.00
52983;BME280;48698;45.736;13.926;2024-02-28T15:32:45;97673.19;;;13.47;100.00
52983;BME280;48698;45.736;13.926;2024-02-28T15:37:54;97768.50;;;13.73;100.00
52983;BME280;48698;45.736;13.926;2024-02-28T15:42:57;97764.03;;;13.74;100.00
52983;BME280;48698;45.736;13.926;2024-02-28T15:48:01;97779.56;;;13.81;100.00
52983;BME280;48698;45.736;13.926;2024-02-28T15:53:04;97682.06;;;13.04;100.00
52983;BME280;48698;45.736;13.926;2024-02-28T15:58:07;97756.28;;;13.55;100.00
52983;BME280;48698;45.736;13.926;2024-02-28T16:03:09;97771.63;;;13.52;100.00
52983;BME280;48698;45.736;13.926;2024-02-28T16:08:13;97774.09;;;13.40;100.00
52983;BME280;48698;45.736;13.926;2024-02-28T16:13:24;97616.22;;;12.32;100.00
52983;BME280;48698;45.736;13.926;2024-02-28T16:18:29;97748.13;;;12.69;100.00
52983;BME280;48698;45.736;13.926;2024-02-28T16:23:33;97784.50;;;13.00;100.00
52983;BME280;48698;45.736;13.926;2024-02-28T16:28:37;97771.31;;;12.82;100.00
52983;BME280;48698;45.736;13.926;2024-02-28T16:33:42;97739.16;;;12.70;100.00
52983;BME280;48698;45.736;13.926;2024-02-28T16:38:47;97702.94;;;12.52;100.00
52983;BME280;48698;45.736;13.926;2024-02-28T16:43:50;97697.28;;;12.42;100.00
52983;BME280;48698;45.736;13.926;2024-02-28T16:48:57;97632.59;;;11.95;100.00
52983;BME280;48698;45.736;13.926;2024-02-28T16:54:00;97711.47;;;12.42;100.00
52983;BME280;48698;45.736;13.926;2024-02-28T16:59:02;97616.78;;;11.91;100.00
52983;BME280;48698;45.736;13.926;2024-02-28T17:04:05;97595.16;;;11.66;100.00
52983;BME280;48698;45.736;13.926;2024-02-28T17:09:08;97679.03;;;12.05;100.00
52983;BME280;48698;45.736;13.926;2024-02-28T17:14:11;97676.28;;;11.90;100.00
52983;BME280;48698;45.736;13.926;2024-02-28T17:19:15;97736.72;;;12.04;100.00
52983;BME280;48698;45.736;13.926;2024-02-28T17:24:17;97638.66;;;11.50;100.00
52983;BME280;48698;45.736;13.926;2024-02-28T17:29:20;97738.34;;;12.07;100.00
52983;BME280;48698;45.736;13.926;2024-02-28T17:34:23;97746.44;;;11.89;100.00
52983;BME280;48698;45.736;13.926;2024-02-28T17:39:26;97516.09;;;10.57;100.00
52983;BME280;48698;45.736;13.926;2024-02-28T17:44:29;97745.56;;;11.89;100.00
52983;BME280;48698;45.736;13.926;2024-02-28T17:49:32;97698.59;;;11.55;100.00
52983;BME280;48698;45.736;13.926;2024-02-28T17:54:36;97721.91;;;11.50;100.00
52983;BME280;48698;45.736;13.926;2024-02-28T17:59:40;97642.28;;;10.99;100.00
52983;BME280;48698;45.736;13.926;2024-02-28T18:04:42;97623.53;;;11.02;100.00
52983;BME280;48698;45.736;13.926;2024-02-28T18:09:45;97685.69;;;11.32;100.00
52983;BME280;48698;45.736;13.926;2024-02-28T18:14:49;97710.19;;;11.54;100.00
52983;BME280;48698;45.736;13.926;2024-02-28T18:19:52;97689.66;;;11.40;100.00
52983;BME280;48698;45.736;13.926;2024-02-28T18:24:54;97661.28;;;11.24;100.00
52983;BME280;48698;45.736;13.926;2024-02-28T18:30:00;97786.06;;;11.78;100.00
52983;BME280;48698;45.736;13.926;2024-02-28T18:35:03;97714.78;;;11.35;100.00
52983;BME280;48698;45.736;13.926;2024-02-28T18:40:06;97778.25;;;11.75;100.00
52983;BME280;48698;45.736;13.926;2024-02-28T18:45:14;97687.13;;;11.05;100.00
52983;BME280;48698;45.736;13.926;2024-02-28T18:50:17;97575.97;;;10.47;100.00
52983;BME280;48698;45.736;13.926;2024-02-28T18:55:26;97761.53;;;11.39;100.00
52983;BME280;48698;45.736;13.926;2024-02-28T19:00:28;97677.00;;;10.96;100.00
52983;BME280;48698;45.736;13.926;2024-02-28T19:05:33;97544.72;;;10.18;100.00
52983;BME280;48698;45.736;13.926;2024-02-28T19:10:35;97561.06;;;9.56;100.00
52983;BME280;48698;45.736;13.926;2024-02-28T19:15:38;97800.66;;;11.03;100.00
52983;BME280;48698;45.736;13.926;2024-02-28T19:20:44;97793.34;;;10.89;100.00
52983;BME280;48698;45.736;13.926;2024-02-28T19:25:50;97823.09;;;11.31;100.00
52983;BME280;48698;45.736;13.926;2024-02-28T19:30:53;97706.06;;;10.99;100.00
52983;BME280;48698;45.736;13.926;2024-02-28T19:36:06;97772.97;;;11.57;100.00
52983;BME280;48698;45.736;13.926;2024-02-28T19:41:18;97719.31;;;11.66;100.00
52983;BME280;48698;45.736;13.926;2024-02-28T19:46:21;97758.59;;;11.93;100.00
52983;BME280;48698;45.736;13.926;2024-02-28T19:51:24;97540.84;;;10.58;100.00
52983;BME280;48698;45.736;13.926;2024-02-28T19:56:27;97535.34;;;10.78;100.00
52983;BME280;48698;45.736;13.926;2024-02-28T20:01:31;97568.91;;;10.96;100.00
52983;BME280;48698;45.736;13.926;2024-02-28T20:06:34;97646.16;;;11.41;100.00
52983;BME280;48698;45.736;13.926;2024-02-28T20:11:44;97809.41;;;12.22;100.00
52983;BME280;48698;45.736;13.926;2024-02-28T20:16:47;97824.41;;;12.07;100.00
52983;BME280;48698;45.736;13.926;2024-02-28T20:21:49;97662.16;;;10.92;100.00
52983;BME280;48698;45.736;13.926;2024-02-28T20:26:53;97833.03;;;11.79;100.00
52983;BME280;48698;45.736;13.926;2024-02-28T20:31:56;97736.00;;;11.19;100.00
52983;BME280;48698;45.736;13.926;2024-02-28T20:36:59;97792.41;;;11.59;100.00
52983;BME280;48698;45.736;13.926;2024-02-28T20:42:02;97673.16;;;10.84;100.00
52983;BME280;48698;45.736;13.926;2024-02-28T20:47:07;97796.84;;;11.58;100.00
52983;BME280;48698;45.736;13.926;2024-02-28T20:52:11;97701.06;;;11.10;100.00
52983;BME280;48698;45.736;13.926;2024-02-28T20:57:14;97743.59;;;11.60;100.00
52983;BME280;48698;45.736;13.926;2024-02-28T21:02:18;97826.63;;;11.99;100.00
52983;BME280;48698;45.736;13.926;2024-02-28T21:07:21;97572.22;;;10.34;100.00
52983;BME280;48698;45.736;13.926;2024-02-28T21:12:44;97768.53;;;11.57;100.00
52983;BME280;48698;45.736;13.926;2024-02-28T21:17:46;97727.88;;;11.55;100.00
52983;BME280;48698;45.736;13.926;2024-02-28T21:22:50;97735.84;;;11.88;100.00
52983;BME280;48698;45.736;13.926;2024-02-28T21:27:53;97743.88;;;12.19;100.00
52983;BME280;48698;45.736;13.926;2024-02-28T21:32:56;97727.56;;;12.25;100.00
52983;BME280;48698;45.736;13.926;2024-02-28T21:37:59;97766.78;;;12.37;100.00
52983;BME280;48698;45.736;13.926;2024-02-28T21:43:02;97813.19;;;12.65;100.00
52983;BME280;48698;45.736;13.926;2024-02-28T21:48:06;97795.75;;;12.59;100.00
52983;BME280;48698;45.736;13.926;2024-02-28T21:53:09;97709.06;;;12.07;100.00
52983;BME280;48698;45.736;13.926;2024-02-28T21:58:12;97790.41;;;12.43;100.00
52983;BME280;48698;45.736;13.926;2024-02-28T22:03:16;97774.44;;;12.28;100.00
52983;BME280;48698;45.736;13.926;2024-02-28T22:08:19;97785.00;;;12.45;100.00
52983;BME280;48698;45.736;13.926;2024-02-28T22:13:22;97813.09;;;12.51;100.00
52983;BME280;48698;45.736;13.926;2024-02-28T22:18:26;97817.72;;;12.63;100.00
52983;BME280;48698;45.736;13.926;2024-02-28T22:23:29;97693.34;;;11.86;100.00
52983;BME280;48698;45.736;13.926;2024-02-28T22:28:35;97676.19;;;11.76;100.00
52983;BME280;48698;45.736;13.926;2024-02-28T22:33:38;97553.00;;;10.79;100.00
52983;BME280;48698;45.736;13.926;2024-02-28T22:38:41;97628.34;;;11.11;100.00
52983;BME280;48698;45.736;13.926;2024-02-28T22:43:43;97807.03;;;12.00;100.00
52983;BME280;48698;45.736;13.926;2024-02-28T22:48:47;97717.28;;;11.54;100.00
52983;BME280;48698;45.736;13.926;2024-02-28T22:53:49;97735.19;;;11.67;100.00
52983;BME280;48698;45.736;13.926;2024-02-28T22:58:52;97663.31;;;11.03;100.00
52983;BME280;48698;45.736;13.926;2024-02-28T23:03:55;97741.66;;;11.46;100.00
52983;BME280;48698;45.736;13.926;2024-02-28T23:08:58;97836.97;;;11.88;100.00
52983;BME280;48698;45.736;13.926;2024-02-28T23:14:07;97793.97;;;11.63;100.00
52983;BME280;48698;45.736;13.926;2024-02-28T23:19:10;97671.69;;;10.96;100.00
52983;BME280;48698;45.736;13.926;2024-02-28T23:24:16;97792.16;;;11.63;100.00
52983;BME280;48698;45.736;13.926;2024-02-28T23:29:18;97722.16;;;11.30;100.00
52983;BME280;48698;45.736;13.926;2024-02-28T23:34:21;97768.00;;;11.51;100.00
52983;BME280;48698;45.736;13.926;2024-02-28T23:39:25;97535.84;;;10.19;100.00
52983;BME280;48698;45.736;13.926;2024-02-28T23:44:28;97610.53;;;10.63;100.00
52983;BME280;48698;45.736;13.926;2024-02-28T23:49:30;97687.78;;;11.43;100.00
52983;BME280;48698;45.736;13.926;2024-02-28T23:54:34;97796.91;;;12.07;100.00
52983;BME280;48698;45.736;13.926;2024-02-28T23:59:37;97674.56;;;11.41;100.00
